createdAt,value
2017-08-10T00:00:19.265Z,0
2017-08-10T00:01:14.364Z,0
2017-08-10T00:02:09.428Z,0
2017-08-10T00:03:10.247Z,0
2017-08-10T00:04:10.445Z,0
2017-08-10T00:05:05.464Z,0
2017-08-10T00:06:05.365Z,0
2017-08-10T00:06:59.243Z,0
2017-08-10T00:07:59.636Z,0
2017-08-10T00:08:54.181Z,0
2017-08-10T00:09:54.315Z,0
2017-08-10T00:10:54.212Z,0
2017-08-10T00:11:54.334Z,0
2017-08-10T00:12:48.897Z,0
2017-08-10T00:13:49.618Z,0
2017-08-10T00:14:49.502Z,0
2017-08-10T00:15:44.988Z,0
2017-08-10T00:16:44.448Z,0
2017-08-10T00:17:38.979Z,0
2017-08-10T00:18:39.043Z,0
2017-08-10T00:19:33.951Z,0
2017-08-10T00:20:28.711Z,0
2017-08-10T00:21:29.328Z,0
2017-08-10T00:22:24.168Z,0
2017-08-10T00:23:19.279Z,0
2017-08-10T00:24:20.110Z,0
2017-08-10T00:25:20.094Z,0
2017-08-10T00:26:20.009Z,0
2017-08-10T00:27:15.454Z,0
2017-08-10T00:28:08.889Z,0
2017-08-10T00:29:09.332Z,0
2017-08-10T00:30:04.236Z,0
2017-08-10T00:30:52.933Z,0
2017-08-10T00:31:42.482Z,0
2017-08-10T00:32:37.620Z,0
2017-08-10T00:33:25.191Z,0
2017-08-10T00:34:13.544Z,0
2017-08-10T00:35:02.822Z,0
2017-08-10T00:35:51.528Z,0
2017-08-10T00:36:40.617Z,0
2017-08-10T00:37:29.817Z,0
2017-08-10T00:38:23.802Z,0
2017-08-10T00:39:11.512Z,0
2017-08-10T00:40:05.639Z,0
2017-08-10T00:40:59.610Z,0
2017-08-10T00:41:59.561Z,0
2017-08-10T00:42:54.027Z,0
2017-08-10T00:43:42.611Z,0
2017-08-10T00:44:36.639Z,0
2017-08-10T00:45:24.694Z,0
2017-08-10T00:46:13.236Z,0
2017-08-10T00:47:07.188Z,0
2017-08-10T00:48:01.958Z,0
2017-08-10T00:48:51.223Z,0
2017-08-10T00:49:45.922Z,0
2017-08-10T00:50:41.210Z,0
2017-08-10T00:51:35.332Z,0
2017-08-10T00:52:35.548Z,0
2017-08-10T00:53:24.048Z,0
2017-08-10T00:54:13.732Z,0
2017-08-10T00:55:01.520Z,0
2017-08-10T00:55:49.224Z,0
2017-08-10T00:56:37.211Z,0
2017-08-10T00:57:26.575Z,0
2017-08-10T00:58:20.807Z,0
2017-08-10T00:59:14.806Z,0
2017-08-10T01:00:03.873Z,0
2017-08-10T01:00:51.772Z,0
2017-08-10T01:01:39.730Z,0
2017-08-10T01:02:33.950Z,0
2017-08-10T01:03:21.885Z,0
2017-08-10T01:04:16.010Z,0
2017-08-10T01:05:04.920Z,0
2017-08-10T01:05:59.025Z,0
2017-08-10T01:06:53.222Z,0
2017-08-10T01:07:41.158Z,0
2017-08-10T01:08:36.218Z,0
2017-08-10T01:09:36.348Z,0
2017-08-10T01:10:30.411Z,0
2017-08-10T01:11:30.038Z,0
2017-08-10T01:12:25.247Z,0
2017-08-10T01:13:19.909Z,0
2017-08-10T01:14:09.048Z,0
2017-08-10T01:15:08.979Z,0
2017-08-10T01:16:03.275Z,0
2017-08-10T01:16:57.083Z,0
2017-08-10T01:17:46.571Z,0
2017-08-10T01:18:40.185Z,0
2017-08-10T01:19:34.260Z,0
2017-08-10T01:20:28.276Z,0
2017-08-10T01:21:28.377Z,0
2017-08-10T01:22:28.292Z,0
2017-08-10T01:23:23.850Z,0
2017-08-10T01:24:17.870Z,0
2017-08-10T01:25:11.877Z,0
2017-08-10T01:26:05.926Z,0
2017-08-10T01:26:59.748Z,0
2017-08-10T01:27:48.974Z,0
2017-08-10T01:28:37.107Z,0
2017-08-10T01:29:26.099Z,0
2017-08-10T01:30:14.194Z,0
2017-08-10T01:31:02.171Z,0
2017-08-10T01:31:51.296Z,0
2017-08-10T01:32:39.338Z,0
2017-08-10T01:33:26.910Z,0
2017-08-10T01:34:21.210Z,0
2017-08-10T01:35:10.328Z,0
2017-08-10T01:36:10.497Z,0
2017-08-10T01:37:10.541Z,0
2017-08-10T01:38:16.152Z,0
2017-08-10T01:39:11.396Z,0
2017-08-10T01:40:05.170Z,0
2017-08-10T01:41:05.129Z,0
2017-08-10T01:42:05.632Z,0
2017-08-10T01:43:00.724Z,0
2017-08-10T01:43:54.680Z,0
2017-08-10T01:44:54.859Z,0
2017-08-10T01:45:43.702Z,0
2017-08-10T01:46:31.730Z,0
2017-08-10T01:47:32.994Z,0
2017-08-10T01:48:20.495Z,0
2017-08-10T01:49:09.525Z,0
2017-08-10T01:49:57.561Z,0
2017-08-10T01:50:51.643Z,0
2017-08-10T01:51:39.637Z,0
2017-08-10T01:52:34.185Z,0
2017-08-10T01:53:33.906Z,0
2017-08-10T01:54:28.740Z,0
2017-08-10T01:55:23.866Z,0
2017-08-10T01:56:24.885Z,0
2017-08-10T01:57:25.026Z,0
2017-08-10T01:58:24.921Z,0
2017-08-10T01:59:20.187Z,0
2017-08-10T02:00:19.957Z,0
2017-08-10T02:01:19.981Z,0
2017-08-10T02:02:14.426Z,0
2017-08-10T02:03:15.053Z,0
2017-08-10T02:04:15.403Z,0
2017-08-10T02:05:15.253Z,0
2017-08-10T02:06:09.159Z,0
2017-08-10T02:07:09.398Z,0
2017-08-10T02:08:03.203Z,0
2017-08-10T02:09:03.239Z,0
2017-08-10T02:09:58.281Z,0
2017-08-10T02:10:58.276Z,0
2017-08-10T02:11:58.307Z,0
2017-08-10T02:12:58.422Z,0
2017-08-10T02:13:52.482Z,0
2017-08-10T02:14:53.442Z,0
2017-08-10T02:15:54.963Z,0
2017-08-10T02:16:54.557Z,0
2017-08-10T02:17:55.987Z,0
2017-08-10T02:18:56.676Z,0
2017-08-10T02:19:50.644Z,0
2017-08-10T02:20:50.689Z,0
2017-08-10T02:21:45.694Z,0
2017-08-10T02:22:40.822Z,0
2017-08-10T02:23:46.963Z,0
2017-08-10T02:24:40.841Z,0
2017-08-10T02:25:40.963Z,0
2017-08-10T02:26:35.805Z,0
2017-08-10T02:27:42.249Z,0
2017-08-10T02:28:36.955Z,0
2017-08-10T02:29:31.160Z,0
2017-08-10T02:30:31.045Z,0
2017-08-10T02:31:31.041Z,0
2017-08-10T02:32:26.428Z,0
2017-08-10T02:33:20.168Z,0
2017-08-10T02:34:20.120Z,0
2017-08-10T02:35:15.667Z,0
2017-08-10T02:36:15.527Z,0
2017-08-10T02:37:09.988Z,0
2017-08-10T02:38:09.704Z,0
2017-08-10T02:39:04.505Z,0
2017-08-10T02:39:59.324Z,0
2017-08-10T02:40:59.430Z,0
2017-08-10T02:41:54.457Z,0
2017-08-10T02:42:55.013Z,0
2017-08-10T02:43:54.815Z,0
2017-08-10T02:45:00.636Z,0
2017-08-10T02:45:55.726Z,0
2017-08-10T02:46:55.949Z,0
2017-08-10T02:47:51.213Z,0
2017-08-10T02:48:50.955Z,0
2017-08-10T02:49:51.064Z,0
2017-08-10T02:50:51.172Z,0
2017-08-10T02:51:50.706Z,0
2017-08-10T02:52:51.321Z,0
2017-08-10T02:53:44.871Z,0
2017-08-10T02:54:45.833Z,0
2017-08-10T02:55:46.100Z,0
2017-08-10T02:56:46.208Z,0
2017-08-10T02:57:46.357Z,0
2017-08-10T02:58:52.065Z,0
2017-08-10T02:59:47.330Z,0
2017-08-10T03:00:47.503Z,0
2017-08-10T03:01:41.612Z,0
2017-08-10T03:02:41.606Z,0
2017-08-10T03:03:36.636Z,0
2017-08-10T03:04:31.602Z,0
2017-08-10T03:05:31.287Z,0
2017-08-10T03:06:26.743Z,0
2017-08-10T03:07:21.928Z,0
2017-08-10T03:08:21.811Z,0
2017-08-10T03:09:16.874Z,0
2017-08-10T03:10:11.809Z,0
2017-08-10T03:11:12.886Z,0
2017-08-10T03:12:12.910Z,0
2017-08-10T03:13:13.028Z,0
2017-08-10T03:14:07.736Z,0
2017-08-10T03:15:01.574Z,0
2017-08-10T03:16:02.132Z,0
2017-08-10T03:16:57.162Z,0
2017-08-10T03:17:57.182Z,0
2017-08-10T03:18:57.099Z,0
2017-08-10T03:19:56.906Z,0
2017-08-10T03:20:51.000Z,0
2017-08-10T03:21:51.785Z,0
2017-08-10T03:22:52.440Z,0
2017-08-10T03:23:52.333Z,0
2017-08-10T03:24:46.877Z,0
2017-08-10T03:25:41.406Z,0
2017-08-10T03:26:41.136Z,0
2017-08-10T03:27:36.563Z,0
2017-08-10T03:28:31.174Z,0
2017-08-10T03:29:32.320Z,0
2017-08-10T03:30:32.204Z,0
2017-08-10T03:31:32.576Z,0
2017-08-10T03:32:27.658Z,0
2017-08-10T03:33:21.702Z,0
2017-08-10T03:34:22.546Z,0
2017-08-10T03:35:22.833Z,4
2017-08-10T03:36:22.697Z,4
2017-08-10T03:37:17.970Z,4
2017-08-10T03:38:11.354Z,0
2017-08-10T03:39:12.429Z,4
2017-08-10T03:40:12.494Z,4
2017-08-10T03:41:07.543Z,4
2017-08-10T03:42:07.812Z,4
2017-08-10T03:43:01.550Z,4
2017-08-10T03:44:01.796Z,8
2017-08-10T03:44:56.701Z,8
2017-08-10T03:45:51.920Z,12
2017-08-10T03:46:51.668Z,12
2017-08-10T03:47:47.253Z,12
2017-08-10T03:48:42.020Z,12
2017-08-10T03:49:41.854Z,16
2017-08-10T03:50:37.087Z,20
2017-08-10T03:51:32.333Z,24
2017-08-10T03:52:33.040Z,24
2017-08-10T03:53:34.013Z,28
2017-08-10T03:54:28.028Z,28
2017-08-10T03:55:23.083Z,36
2017-08-10T03:56:18.201Z,40
2017-08-10T03:57:06.140Z,44
2017-08-10T03:57:54.137Z,48
2017-08-10T03:58:43.612Z,52
2017-08-10T03:59:31.317Z,60
2017-08-10T04:00:19.305Z,68
2017-08-10T04:01:08.455Z,76
2017-08-10T04:01:57.407Z,88
2017-08-10T04:02:46.877Z,104
2017-08-10T04:03:41.432Z,120
2017-08-10T04:04:36.489Z,140
2017-08-10T04:05:25.616Z,164
2017-08-10T04:06:20.584Z,188
2017-08-10T04:07:14.561Z,216
2017-08-10T04:08:08.822Z,244
2017-08-10T04:09:03.735Z,276
2017-08-10T04:09:58.052Z,308
2017-08-10T04:10:57.876Z,336
2017-08-10T04:11:51.995Z,364
2017-08-10T04:12:45.849Z,388
2017-08-10T04:13:40.272Z,412
2017-08-10T04:14:34.200Z,432
2017-08-10T04:15:29.391Z,456
2017-08-10T04:16:23.361Z,484
2017-08-10T04:17:17.431Z,508
2017-08-10T04:18:12.465Z,528
2017-08-10T04:19:06.546Z,544
2017-08-10T04:20:01.549Z,552
2017-08-10T04:20:55.656Z,556
2017-08-10T04:21:49.689Z,560
2017-08-10T04:22:44.756Z,552
2017-08-10T04:23:38.784Z,552
2017-08-10T04:24:32.903Z,556
2017-08-10T04:25:27.835Z,572
2017-08-10T04:26:22.964Z,604
2017-08-10T04:27:17.870Z,648
2017-08-10T04:28:12.922Z,716
2017-08-10T04:29:07.039Z,796
2017-08-10T04:30:01.015Z,888
2017-08-10T04:30:56.116Z,988
2017-08-10T04:31:44.121Z,1060
2017-08-10T04:32:32.735Z,1116
2017-08-10T04:33:20.763Z,1136
2017-08-10T04:34:08.856Z,1128
2017-08-10T04:34:56.856Z,1108
2017-08-10T04:35:50.944Z,1080
2017-08-10T04:36:45.099Z,1056
2017-08-10T04:37:46.081Z,1040
2017-08-10T04:38:47.030Z,1048
2017-08-10T04:39:42.218Z,1068
2017-08-10T04:40:42.072Z,1108
2017-08-10T04:41:42.154Z,1176
2017-08-10T04:42:31.328Z,1232
2017-08-10T04:43:19.222Z,1284
2017-08-10T04:44:07.752Z,1332
2017-08-10T04:45:01.385Z,1364
2017-08-10T04:45:50.274Z,1384
2017-08-10T04:46:44.487Z,1396
2017-08-10T04:47:39.396Z,1412
2017-08-10T04:48:33.509Z,1432
2017-08-10T04:49:22.567Z,1456
2017-08-10T04:50:11.074Z,1488
2017-08-10T04:51:05.668Z,1516
2017-08-10T04:52:06.036Z,1564
2017-08-10T04:53:06.649Z,1620
2017-08-10T04:54:00.770Z,1696
2017-08-10T04:55:00.710Z,1776
2017-08-10T04:55:55.983Z,1848
2017-08-10T04:56:51.093Z,1912
2017-08-10T04:57:44.780Z,1968
2017-08-10T04:58:44.945Z,2052
2017-08-10T04:59:39.845Z,2176
2017-08-10T05:00:35.215Z,2344
2017-08-10T05:01:35.161Z,2568
2017-08-10T05:02:30.043Z,2756
2017-08-10T05:03:25.060Z,2896
2017-08-10T05:04:19.134Z,2968
2017-08-10T05:05:20.169Z,2976
2017-08-10T05:06:20.230Z,2936
2017-08-10T05:07:20.227Z,2884
2017-08-10T05:08:15.716Z,2836
2017-08-10T05:09:15.417Z,2800
2017-08-10T05:10:15.348Z,2808
2017-08-10T05:11:15.368Z,2848
2017-08-10T05:12:15.914Z,2920
2017-08-10T05:13:15.371Z,3048
2017-08-10T05:14:15.560Z,3240
2017-08-10T05:15:15.708Z,3504
2017-08-10T05:16:21.542Z,3832
2017-08-10T05:17:16.965Z,4096
2017-08-10T05:18:10.662Z,4292
2017-08-10T05:19:10.636Z,4436
2017-08-10T05:20:05.977Z,4520
2017-08-10T05:21:01.296Z,4596
2017-08-10T05:22:01.923Z,4676
2017-08-10T05:23:02.220Z,4776
2017-08-10T05:23:56.924Z,4904
2017-08-10T05:24:52.002Z,5084
2017-08-10T05:25:52.034Z,5328
2017-08-10T05:26:46.949Z,5600
2017-08-10T05:27:42.343Z,5916
2017-08-10T05:28:36.388Z,6256
2017-08-10T05:29:36.211Z,6652
2017-08-10T05:30:31.177Z,7000
2017-08-10T05:31:31.179Z,7316
2017-08-10T05:32:31.266Z,7528
2017-08-10T05:33:31.568Z,7660
2017-08-10T05:34:25.302Z,7724
2017-08-10T05:35:25.690Z,7788
2017-08-10T05:36:20.674Z,7816
2017-08-10T05:37:20.757Z,7780
2017-08-10T05:38:21.527Z,7696
2017-08-10T05:39:22.815Z,7620
2017-08-10T05:40:23.942Z,7588
2017-08-10T05:41:17.523Z,7640
2017-08-10T05:42:18.008Z,7776
2017-08-10T05:43:12.608Z,7948
2017-08-10T05:44:07.714Z,8060
2017-08-10T05:45:08.087Z,8132
2017-08-10T05:46:08.126Z,8224
2017-08-10T05:47:08.104Z,8176
2017-08-10T05:48:08.290Z,8028
2017-08-10T05:49:02.230Z,8032
2017-08-10T05:50:02.323Z,8096
2017-08-10T05:50:57.668Z,8124
2017-08-10T05:51:52.275Z,8160
2017-08-10T05:52:46.451Z,8148
2017-08-10T05:53:46.391Z,8100
2017-08-10T05:54:41.595Z,8000
2017-08-10T05:55:41.563Z,7816
2017-08-10T05:56:42.034Z,7716
2017-08-10T05:57:41.706Z,7648
2017-08-10T05:58:35.659Z,7608
2017-08-10T05:59:36.791Z,7660
2017-08-10T06:00:36.752Z,7880
2017-08-10T06:01:31.809Z,8236
2017-08-10T06:02:31.901Z,8832
2017-08-10T06:03:32.829Z,9580
2017-08-10T06:04:32.788Z,10404
2017-08-10T06:05:33.057Z,11128
2017-08-10T06:06:32.987Z,11684
2017-08-10T06:07:39.044Z,12144
2017-08-10T06:08:34.005Z,12580
2017-08-10T06:09:28.099Z,13112
2017-08-10T06:10:28.100Z,13820
2017-08-10T06:11:23.178Z,14572
2017-08-10T06:12:18.169Z,15340
2017-08-10T06:13:18.317Z,16256
2017-08-10T06:14:13.309Z,16192
2017-08-10T06:15:07.336Z,15704
2017-08-10T06:16:01.402Z,15520
2017-08-10T06:16:55.408Z,15444
2017-08-10T06:17:44.546Z,15504
2017-08-10T06:18:32.535Z,15764
2017-08-10T06:19:26.568Z,17152
2017-08-10T06:20:26.623Z,17248
2017-08-10T06:21:26.745Z,16992
2017-08-10T06:22:14.878Z,16672
2017-08-10T06:23:08.757Z,16108
2017-08-10T06:23:56.861Z,16020
2017-08-10T06:24:45.857Z,15824
2017-08-10T06:25:45.845Z,15476
2017-08-10T06:26:40.962Z,15040
2017-08-10T06:27:35.892Z,14180
2017-08-10T06:28:30.842Z,13464
2017-08-10T06:29:19.111Z,12932
2017-08-10T06:30:13.095Z,12624
2017-08-10T06:31:13.123Z,12392
2017-08-10T06:32:08.155Z,12020
2017-08-10T06:32:56.182Z,11280
2017-08-10T06:33:56.385Z,10176
2017-08-10T06:34:44.332Z,9760
2017-08-10T06:35:33.374Z,9764
2017-08-10T06:36:33.455Z,10172
2017-08-10T06:37:22.555Z,10400
2017-08-10T06:38:17.522Z,10484
2017-08-10T06:39:06.606Z,10916
2017-08-10T06:40:01.596Z,11692
2017-08-10T06:40:55.579Z,12164
2017-08-10T06:41:43.702Z,12216
2017-08-10T06:42:43.843Z,12008
2017-08-10T06:43:38.786Z,11640
2017-08-10T06:44:33.847Z,11332
2017-08-10T06:45:27.967Z,10788
2017-08-10T06:46:27.874Z,9988
2017-08-10T06:47:22.940Z,9628
2017-08-10T06:48:29.039Z,9216
2017-08-10T06:49:24.117Z,8828
2017-08-10T06:50:18.022Z,8388
2017-08-10T06:51:13.110Z,8004
2017-08-10T06:52:07.194Z,7628
2017-08-10T06:52:55.268Z,7288
2017-08-10T06:53:56.272Z,6984
2017-08-10T06:54:57.330Z,6672
2017-08-10T06:55:52.298Z,6524
2017-08-10T06:56:40.382Z,6412
2017-08-10T06:57:35.481Z,6328
2017-08-10T06:58:29.488Z,6308
2017-08-10T06:59:17.529Z,6376
2017-08-10T07:00:05.579Z,6536
2017-08-10T07:00:54.684Z,6792
2017-08-10T07:01:43.812Z,6972
2017-08-10T07:02:37.809Z,7188
2017-08-10T07:03:25.742Z,7256
2017-08-10T07:04:13.975Z,7188
2017-08-10T07:05:01.831Z,7032
2017-08-10T07:06:01.911Z,6772
2017-08-10T07:06:56.983Z,6440
2017-08-10T07:07:45.989Z,6156
2017-08-10T07:08:35.058Z,5932
2017-08-10T07:09:23.092Z,5868
2017-08-10T07:10:12.106Z,5884
2017-08-10T07:11:00.158Z,5956
2017-08-10T07:11:48.207Z,6036
2017-08-10T07:12:37.233Z,6032
2017-08-10T07:13:25.423Z,6020
2017-08-10T07:14:14.289Z,6008
2017-08-10T07:15:09.453Z,6080
2017-08-10T07:16:03.341Z,6240
2017-08-10T07:17:03.413Z,6688
2017-08-10T07:17:58.652Z,7184
2017-08-10T07:18:53.621Z,7916
2017-08-10T07:19:53.625Z,8796
2017-08-10T07:20:42.722Z,9256
2017-08-10T07:21:36.682Z,9524
2017-08-10T07:22:36.778Z,9604
2017-08-10T07:23:31.736Z,9584
2017-08-10T07:24:26.836Z,9492
2017-08-10T07:25:20.898Z,9392
2017-08-10T07:26:20.876Z,9196
2017-08-10T07:27:16.040Z,9032
2017-08-10T07:28:15.960Z,8652
2017-08-10T07:29:16.938Z,8280
2017-08-10T07:30:17.032Z,7968
2017-08-10T07:31:23.136Z,7708
2017-08-10T07:32:18.223Z,7548
2017-08-10T07:33:12.181Z,7492
2017-08-10T07:34:13.248Z,7580
2017-08-10T07:35:13.240Z,7772
2017-08-10T07:36:08.222Z,7992
2017-08-10T07:37:08.354Z,8328
2017-08-10T07:38:08.441Z,8664
2017-08-10T07:39:08.387Z,9032
2017-08-10T07:40:02.447Z,9396
2017-08-10T07:41:02.541Z,9736
2017-08-10T07:41:57.490Z,10224
2017-08-10T07:42:51.680Z,10372
2017-08-10T07:43:39.584Z,10288
2017-08-10T07:44:27.573Z,10032
2017-08-10T07:45:16.706Z,9648
2017-08-10T07:46:05.824Z,9124
2017-08-10T07:46:59.880Z,8644
2017-08-10T07:47:53.834Z,8300
2017-08-10T07:48:47.965Z,8100
2017-08-10T07:49:47.934Z,8060
2017-08-10T07:50:42.948Z,8132
2017-08-10T07:51:38.115Z,8188
2017-08-10T07:52:38.085Z,8180
2017-08-10T07:53:33.047Z,8152
2017-08-10T07:54:33.138Z,8168
2017-08-10T07:55:34.165Z,8272
2017-08-10T07:56:35.133Z,8384
2017-08-10T07:57:29.245Z,8352
2017-08-10T07:58:29.251Z,8320
2017-08-10T07:59:24.344Z,8280
2017-08-10T08:00:19.316Z,8404
2017-08-10T08:01:13.414Z,8564
2017-08-10T08:02:13.475Z,8804
2017-08-10T08:03:08.587Z,9044
2017-08-10T08:04:03.491Z,9308
2017-08-10T08:05:03.549Z,9624
2017-08-10T08:05:58.727Z,9932
2017-08-10T08:06:52.713Z,10148
2017-08-10T08:07:46.779Z,10224
2017-08-10T08:08:41.977Z,10320
2017-08-10T08:09:29.903Z,10420
2017-08-10T08:10:24.916Z,10688
2017-08-10T08:11:24.954Z,11036
2017-08-10T08:12:12.997Z,11356
2017-08-10T08:13:01.019Z,11616
2017-08-10T08:13:49.012Z,11868
2017-08-10T08:14:44.084Z,12140
2017-08-10T08:15:38.066Z,12392
2017-08-10T08:16:27.229Z,12524
2017-08-10T08:17:15.310Z,12356
2017-08-10T08:18:15.293Z,11880
2017-08-10T08:19:09.650Z,11484
2017-08-10T08:20:03.409Z,11380
2017-08-10T08:20:57.340Z,11540
2017-08-10T08:21:46.412Z,11892
2017-08-10T08:22:46.496Z,12480
2017-08-10T08:23:41.489Z,13320
2017-08-10T08:24:29.853Z,14344
2017-08-10T08:25:23.752Z,15604
2017-08-10T08:26:17.661Z,17344
2017-08-10T08:27:06.755Z,18592
2017-08-10T08:28:01.857Z,19584
2017-08-10T08:28:55.803Z,20320
2017-08-10T08:29:51.223Z,20832
2017-08-10T08:30:39.046Z,20992
2017-08-10T08:31:32.960Z,21184
2017-08-10T08:32:26.901Z,21344
2017-08-10T08:33:22.149Z,21664
2017-08-10T08:34:10.085Z,22144
2017-08-10T08:35:05.404Z,22464
2017-08-10T08:35:59.337Z,22400
2017-08-10T08:36:47.279Z,22080
2017-08-10T08:37:41.305Z,21728
2017-08-10T08:38:30.913Z,21088
2017-08-10T08:39:24.433Z,20064
2017-08-10T08:40:24.454Z,18816
2017-08-10T08:41:13.597Z,18112
2017-08-10T08:42:07.492Z,17696
2017-08-10T08:43:01.494Z,17472
2017-08-10T08:43:56.682Z,17344
2017-08-10T08:44:44.692Z,17280
2017-08-10T08:45:33.779Z,17152
2017-08-10T08:46:27.721Z,17120
2017-08-10T08:47:16.902Z,17120
2017-08-10T08:48:04.883Z,17280
2017-08-10T08:48:58.946Z,17504
2017-08-10T08:49:52.963Z,17760
2017-08-10T08:50:48.028Z,17952
2017-08-10T08:51:48.092Z,18336
2017-08-10T08:52:43.125Z,18752
2017-08-10T08:53:44.209Z,19232
2017-08-10T08:54:39.229Z,19872
2017-08-10T08:55:39.281Z,20352
2017-08-10T08:56:27.386Z,20864
2017-08-10T08:57:21.545Z,21600
2017-08-10T08:58:10.407Z,22272
2017-08-10T08:58:59.536Z,23136
2017-08-10T08:59:48.468Z,23968
2017-08-10T09:00:36.547Z,24800
2017-08-10T09:01:36.572Z,25600
2017-08-10T09:02:25.612Z,26080
2017-08-10T09:03:14.739Z,26656
2017-08-10T09:04:09.830Z,27232
2017-08-10T09:04:58.765Z,27904
2017-08-10T09:05:58.884Z,28576
2017-08-10T09:06:52.898Z,29216
2017-08-10T09:07:53.935Z,29408
2017-08-10T09:08:47.951Z,29280
2017-08-10T09:09:36.130Z,29152
2017-08-10T09:10:30.098Z,29472
2017-08-10T09:11:19.097Z,30528
2017-08-10T09:12:08.231Z,32448
2017-08-10T09:12:57.244Z,34880
2017-08-10T09:13:52.357Z,37536
2017-08-10T09:14:46.307Z,39936
2017-08-10T09:15:35.414Z,41600
2017-08-10T09:16:23.405Z,42144
2017-08-10T09:17:17.615Z,41024
2017-08-10T09:18:06.563Z,39424
2017-08-10T09:19:06.521Z,37344
2017-08-10T09:20:00.583Z,36000
2017-08-10T09:20:55.627Z,36256
2017-08-10T09:21:50.697Z,43200
2017-08-10T09:22:38.857Z,48544
2017-08-10T09:23:32.905Z,53728
2017-08-10T09:24:21.788Z,53920
2017-08-10T09:25:15.909Z,51520
2017-08-10T09:26:05.032Z,49760
2017-08-10T09:26:59.101Z,48480
2017-08-10T09:27:54.129Z,47552
2017-08-10T09:28:48.145Z,47552
2017-08-10T09:29:42.347Z,48288
2017-08-10T09:30:37.199Z,52160
2017-08-10T09:31:32.506Z,50592
2017-08-10T09:32:27.298Z,46304
2017-08-10T09:33:16.509Z,42656
2017-08-10T09:34:11.514Z,39872
2017-08-10T09:34:59.546Z,38880
2017-08-10T09:35:53.547Z,38624
2017-08-10T09:36:47.623Z,39104
2017-08-10T09:37:42.741Z,39968
2017-08-10T09:38:42.883Z,33536
2017-08-10T09:39:36.781Z,23712
2017-08-10T09:40:36.883Z,22176
2017-08-10T09:41:30.920Z,31264
2017-08-10T09:42:25.991Z,38368
2017-08-10T09:43:15.037Z,38080
2017-08-10T09:44:09.418Z,38752
2017-08-10T09:45:03.154Z,40416
2017-08-10T09:45:52.218Z,43712
2017-08-10T09:46:46.672Z,51456
2017-08-10T09:47:35.479Z,67040
2017-08-10T09:48:30.022Z,59968
2017-08-10T09:49:24.718Z,76768
2017-08-10T09:50:18.605Z,66144
2017-08-10T09:51:12.507Z,80672
2017-08-10T09:52:01.648Z,76160
2017-08-10T09:52:50.641Z,90752
2017-08-10T09:53:38.782Z,62336
2017-08-10T09:54:33.730Z,70752
2017-08-10T09:55:21.880Z,72384
2017-08-10T09:56:15.769Z,76224
2017-08-10T09:57:10.866Z,48064
2017-08-10T09:58:10.859Z,48640
2017-08-10T09:59:00.045Z,56128
2017-08-10T09:59:54.224Z,81504
2017-08-10T10:00:54.098Z,81152
2017-08-10T10:01:43.256Z,87712
2017-08-10T10:02:32.210Z,78048
2017-08-10T10:03:21.365Z,85984
2017-08-10T10:04:15.436Z,81088
2017-08-10T10:05:04.359Z,78272
2017-08-10T10:05:58.488Z,76128
2017-08-10T10:06:58.554Z,75136
2017-08-10T10:07:52.499Z,75584
2017-08-10T10:08:46.761Z,76352
2017-08-10T10:09:34.802Z,78528
2017-08-10T10:10:28.906Z,78848
2017-08-10T10:11:22.920Z,82592
2017-08-10T10:12:16.880Z,37120
2017-08-10T10:13:16.991Z,33440
2017-08-10T10:14:12.104Z,31776
2017-08-10T10:15:12.222Z,32000
2017-08-10T10:16:06.326Z,32160
2017-08-10T10:16:55.286Z,32736
2017-08-10T10:17:49.291Z,32416
2017-08-10T10:18:44.599Z,32224
2017-08-10T10:19:39.534Z,32384
2017-08-10T10:20:34.434Z,35168
2017-08-10T10:21:29.542Z,35712
2017-08-10T10:22:23.608Z,39040
2017-08-10T10:23:17.603Z,43584
2017-08-10T10:24:11.728Z,44192
2017-08-10T10:25:06.781Z,46720
2017-08-10T10:26:00.767Z,48736
2017-08-10T10:26:55.195Z,51360
2017-08-10T10:27:49.871Z,54176
2017-08-10T10:28:45.034Z,53184
2017-08-10T10:29:34.060Z,53600
2017-08-10T10:30:29.111Z,54688
2017-08-10T10:31:18.191Z,55648
2017-08-10T10:32:13.363Z,56384
2017-08-10T10:33:08.322Z,56256
2017-08-10T10:34:09.346Z,57120
2017-08-10T10:35:09.482Z,57728
2017-08-10T10:36:09.451Z,54944
2017-08-10T10:37:03.460Z,60608
2017-08-10T10:37:52.610Z,70208
2017-08-10T10:38:52.636Z,65568
2017-08-10T10:39:46.670Z,72768
2017-08-10T10:40:40.800Z,84000
2017-08-10T10:41:34.792Z,49664
2017-08-10T10:42:23.049Z,47616
2017-08-10T10:43:12.240Z,45504
2017-08-10T10:44:07.055Z,42976
2017-08-10T10:45:01.134Z,42624
2017-08-10T10:46:01.125Z,41472
2017-08-10T10:47:01.168Z,41312
2017-08-10T10:47:55.283Z,40192
2017-08-10T10:48:55.235Z,38944
2017-08-10T10:49:44.336Z,38528
2017-08-10T10:50:32.381Z,38400
2017-08-10T10:51:26.365Z,38176
2017-08-10T10:52:21.647Z,39936
2017-08-10T10:53:15.614Z,42720
2017-08-10T10:54:16.324Z,43488
2017-08-10T10:55:15.738Z,41152
2017-08-10T10:56:10.756Z,38368
2017-08-10T10:57:04.693Z,36192
2017-08-10T10:58:04.956Z,34176
2017-08-10T10:59:04.891Z,32224
2017-08-10T11:00:04.988Z,30176
2017-08-10T11:00:59.044Z,27840
2017-08-10T11:01:53.134Z,26976
2017-08-10T11:02:53.162Z,27712
2017-08-10T11:03:47.187Z,29248
2017-08-10T11:04:47.240Z,30560
2017-08-10T11:05:41.473Z,29856
2017-08-10T11:06:41.287Z,28160
2017-08-10T11:07:36.380Z,27008
2017-08-10T11:08:30.481Z,25440
2017-08-10T11:09:25.520Z,24480
2017-08-10T11:10:19.506Z,24320
2017-08-10T11:11:13.627Z,24320
2017-08-10T11:12:07.674Z,24640
2017-08-10T11:13:07.674Z,25984
2017-08-10T11:13:55.702Z,26688
2017-08-10T11:14:55.768Z,26240
2017-08-10T11:15:44.785Z,25088
2017-08-10T11:16:32.972Z,23840
2017-08-10T11:17:27.037Z,23136
2017-08-10T11:18:20.997Z,23392
2017-08-10T11:19:09.208Z,24960
2017-08-10T11:20:09.088Z,27456
2017-08-10T11:20:57.250Z,28096
2017-08-10T11:21:51.336Z,26848
2017-08-10T11:22:45.293Z,24544
2017-08-10T11:23:40.391Z,23392
2017-08-10T11:24:40.400Z,24544
2017-08-10T11:25:35.420Z,26208
2017-08-10T11:26:30.684Z,27328
2017-08-10T11:27:24.711Z,28160
2017-08-10T11:28:13.587Z,28608
2017-08-10T11:29:02.551Z,28736
2017-08-10T11:29:56.705Z,28704
2017-08-10T11:30:50.868Z,29376
2017-08-10T11:31:39.824Z,31392
2017-08-10T11:32:33.849Z,35872
2017-08-10T11:33:39.946Z,41568
2017-08-10T11:34:34.125Z,43008
2017-08-10T11:35:35.048Z,42656
2017-08-10T11:36:29.096Z,42464
2017-08-10T11:37:23.278Z,43072
2017-08-10T11:38:17.144Z,45216
2017-08-10T11:39:06.205Z,49280
2017-08-10T11:39:55.373Z,49952
2017-08-10T11:40:44.467Z,47744
2017-08-10T11:41:32.418Z,44736
2017-08-10T11:42:26.538Z,41408
2017-08-10T11:43:20.528Z,38016
2017-08-10T11:44:20.706Z,35680
2017-08-10T11:45:09.661Z,34144
2017-08-10T11:45:58.668Z,33024
2017-08-10T11:46:52.811Z,33024
2017-08-10T11:47:46.843Z,32928
2017-08-10T11:48:40.897Z,32992
2017-08-10T11:49:40.899Z,33664
2017-08-10T11:50:35.068Z,34560
2017-08-10T11:51:35.043Z,35392
2017-08-10T11:52:30.128Z,35904
2017-08-10T11:53:19.157Z,35136
2017-08-10T11:54:14.194Z,33216
2017-08-10T11:55:08.252Z,31680
2017-08-10T11:56:03.302Z,30784
2017-08-10T11:56:58.455Z,30688
2017-08-10T11:57:47.463Z,29984
2017-08-10T11:58:36.412Z,29504
2017-08-10T11:59:31.590Z,28704
2017-08-10T12:00:25.502Z,28512
2017-08-10T12:01:19.662Z,28448
2017-08-10T12:02:14.686Z,28512
2017-08-10T12:03:09.731Z,28512
2017-08-10T12:04:10.778Z,28032
2017-08-10T12:05:04.906Z,27072
2017-08-10T12:05:53.842Z,25888
2017-08-10T12:06:42.926Z,24672
2017-08-10T12:07:37.082Z,25472
2017-08-10T12:08:26.222Z,27392
2017-08-10T12:09:20.204Z,28384
2017-08-10T12:10:15.179Z,29152
2017-08-10T12:11:15.145Z,30656
2017-08-10T12:12:09.330Z,31936
2017-08-10T12:13:10.444Z,33376
2017-08-10T12:14:11.436Z,34432
2017-08-10T12:15:00.426Z,34656
2017-08-10T12:16:00.553Z,36480
2017-08-10T12:16:55.635Z,39584
2017-08-10T12:17:50.596Z,41824
2017-08-10T12:18:44.681Z,40928
2017-08-10T12:19:38.741Z,36864
2017-08-10T12:20:27.856Z,33728
2017-08-10T12:21:27.822Z,31008
2017-08-10T12:22:16.847Z,31040
2017-08-10T12:23:10.939Z,33312
2017-08-10T12:24:00.036Z,37664
2017-08-10T12:24:49.093Z,41984